sensor_id;sensor_type;location;lat;lon;timestamp;P1;durP1;ratioP1;P2;durP2;ratioP2
7503;SDS011;3793;48.136;11.536;2022-08-01T00:00:00;2.10;;;1.70;;
7503;SDS011;3793;48.136;11.536;2022-08-01T00:02:28;4.18;;;1.90;;
7503;SDS011;3793;48.136;11.536;2022-08-01T00:04:57;2.40;;;1.77;;
7503;SDS011;3793;48.136;11.536;2022-08-01T00:07:25;3.92;;;1.75;;
7503;SDS011;3793;48.136;11.536;2022-08-01T00:09:51;2.30;;;2.10;;
7503;SDS011;3793;48.136;11.536;2022-08-01T00:12:18;2.22;;;2.03;;
7503;SDS011;3793;48.136;11.536;2022-08-01T00:14:44;3.58;;;1.92;;
7503;SDS011;3793;48.136;11.536;2022-08-01T00:17:11;2.53;;;2.13;;
7503;SDS011;3793;48.136;11.536;2022-08-01T00:19:37;2.42;;;2.00;;
7503;SDS011;3793;48.136;11.536;2022-08-01T00:22:05;2.75;;;1.88;;
7503;SDS011;3793;48.136;11.536;2022-08-01T00:24:32;2.88;;;2.10;;
7503;SDS011;3793;48.136;11.536;2022-08-01T00:26:59;2.28;;;1.70;;
7503;SDS011;3793;48.136;11.536;2022-08-01T00:29:25;2.75;;;2.00;;
7503;SDS011;3793;48.136;11.536;2022-08-01T00:31:52;2.97;;;1.90;;
7503;SDS011;3793;48.136;11.536;2022-08-01T00:34:18;2.10;;;1.90;;
7503;SDS011;3793;48.136;11.536;2022-08-01T00:36:45;1.90;;;1.80;;
7503;SDS011;3793;48.136;11.536;2022-08-01T00:39:13;2.22;;;1.85;;
7503;SDS011;3793;48.136;11.536;2022-08-01T00:41:39;2.35;;;1.77;;
7503;SDS011;3793;48.136;11.536;2022-08-01T00:44:06;2.83;;;1.77;;
7503;SDS011;3793;48.136;11.536;2022-08-01T00:46:33;1.70;;;1.52;;
7503;SDS011;3793;48.136;11.536;2022-08-01T00:48:59;3.15;;;1.70;;
7503;SDS011;3793;48.136;11.536;2022-08-01T00:51:26;2.17;;;1.98;;
7503;SDS011;3793;48.136;11.536;2022-08-01T00:53:53;2.70;;;1.88;;
7503;SDS011;3793;48.136;11.536;2022-08-01T00:56:21;1.98;;;1.60;;
7503;SDS011;3793;48.136;11.536;2022-08-01T00:58:50;2.42;;;1.90;;
7503;SDS011;3793;48.136;11.536;2022-08-01T01:01:16;2.05;;;1.85;;
7503;SDS011;3793;48.136;11.536;2022-08-01T01:03:43;2.92;;;1.80;;
7503;SDS011;3793;48.136;11.536;2022-08-01T01:06:13;4.40;;;2.15;;
7503;SDS011;3793;48.136;11.536;2022-08-01T01:08:41;2.40;;;2.00;;
7503;SDS011;3793;48.136;11.536;2022-08-01T01:11:10;2.38;;;2.10;;
7503;SDS011;3793;48.136;11.536;2022-08-01T01:13:43;3.55;;;2.03;;
7503;SDS011;3793;48.136;11.536;2022-08-01T01:16:10;4.85;;;1.88;;
7503;SDS011;3793;48.136;11.536;2022-08-01T01:18:37;2.05;;;1.80;;
7503;SDS011;3793;48.136;11.536;2022-08-01T01:21:06;3.88;;;2.40;;
7503;SDS011;3793;48.136;11.536;2022-08-01T01:23:43;2.97;;;2.00;;
7503;SDS011;3793;48.136;11.536;2022-08-01T01:29:03;4.32;;;1.92;;
7503;SDS011;3793;48.136;11.536;2022-08-01T01:31:33;2.95;;;2.08;;
7503;SDS011;3793;48.136;11.536;2022-08-01T01:34:02;2.45;;;1.90;;
7503;SDS011;3793;48.136;11.536;2022-08-01T01:36:29;2.42;;;2.08;;
7503;SDS011;3793;48.136;11.536;2022-08-01T01:38:57;3.08;;;2.08;;
7503;SDS011;3793;48.136;11.536;2022-08-01T01:41:23;3.03;;;2.20;;
7503;SDS011;3793;48.136;11.536;2022-08-01T01:43:50;2.08;;;1.85;;
7503;SDS011;3793;48.136;11.536;2022-08-01T01:46:20;2.30;;;1.90;;
7503;SDS011;3793;48.136;11.536;2022-08-01T01:48:48;2.45;;;1.83;;
7503;SDS011;3793;48.136;11.536;2022-08-01T01:51:16;2.85;;;2.10;;
7503;SDS011;3793;48.136;11.536;2022-08-01T01:53:43;2.58;;;1.88;;
7503;SDS011;3793;48.136;11.536;2022-08-01T01:56:11;3.92;;;2.03;;
7503;SDS011;3793;48.136;11.536;2022-08-01T01:58:41;4.63;;;2.03;;
7503;SDS011;3793;48.136;11.536;2022-08-01T02:01:08;3.20;;;1.67;;
7503;SDS011;3793;48.136;11.536;2022-08-01T02:03:37;2.97;;;1.80;;
7503;SDS011;3793;48.136;11.536;2022-08-01T02:06:06;2.15;;;1.95;;
7503;SDS011;3793;48.136;11.536;2022-08-01T02:08:33;3.35;;;1.88;;
7503;SDS011;3793;48.136;11.536;2022-08-01T02:11:01;2.53;;;2.03;;
7503;SDS011;3793;48.136;11.536;2022-08-01T02:13:46;3.45;;;1.85;;
7503;SDS011;3793;48.136;11.536;2022-08-01T02:16:13;3.15;;;2.17;;
7503;SDS011;3793;48.136;11.536;2022-08-01T02:18:42;2.78;;;1.83;;
7503;SDS011;3793;48.136;11.536;2022-08-01T02:21:09;2.47;;;1.98;;
7503;SDS011;3793;48.136;11.536;2022-08-01T02:23:37;3.60;;;2.03;;
7503;SDS011;3793;48.136;11.536;2022-08-01T02:26:06;5.30;;;1.90;;
7503;SDS011;3793;48.136;11.536;2022-08-01T02:28:35;2.60;;;2.00;;
7503;SDS011;3793;48.136;11.536;2022-08-01T02:31:02;2.25;;;1.75;;
7503;SDS011;3793;48.136;11.536;2022-08-01T02:33:33;2.88;;;2.38;;
7503;SDS011;3793;48.136;11.536;2022-08-01T02:36:03;2.60;;;2.00;;
7503;SDS011;3793;48.136;11.536;2022-08-01T02:38:31;2.45;;;2.00;;
7503;SDS011;3793;48.136;11.536;2022-08-01T02:41:00;3.13;;;2.20;;
7503;SDS011;3793;48.136;11.536;2022-08-01T02:43:29;2.05;;;1.90;;
7503;SDS011;3793;48.136;11.536;2022-08-01T02:45:57;4.82;;;2.20;;
7503;SDS011;3793;48.136;11.536;2022-08-01T02:48:26;2.50;;;1.90;;
7503;SDS011;3793;48.136;11.536;2022-08-01T02:50:54;3.58;;;1.95;;
7503;SDS011;3793;48.136;11.536;2022-08-01T02:53:23;4.55;;;1.67;;
7503;SDS011;3793;48.136;11.536;2022-08-01T02:55:50;2.20;;;2.00;;
7503;SDS011;3793;48.136;11.536;2022-08-01T02:58:17;2.78;;;1.83;;
7503;SDS011;3793;48.136;11.536;2022-08-01T03:00:45;3.00;;;2.05;;
7503;SDS011;3793;48.136;11.536;2022-08-01T03:03:12;2.75;;;2.03;;
7503;SDS011;3793;48.136;11.536;2022-08-01T03:05:39;3.80;;;2.10;;
7503;SDS011;3793;48.136;11.536;2022-08-01T03:08:07;2.35;;;2.03;;
7503;SDS011;3793;48.136;11.536;2022-08-01T03:10:36;3.78;;;2.10;;
7503;SDS011;3793;48.136;11.536;2022-08-01T03:13:03;4.07;;;2.20;;
7503;SDS011;3793;48.136;11.536;2022-08-01T03:15:31;3.92;;;2.25;;
7503;SDS011;3793;48.136;11.536;2022-08-01T03:17:58;2.50;;;1.92;;
7503;SDS011;3793;48.136;11.536;2022-08-01T03:20:26;3.22;;;2.30;;
7503;SDS011;3793;48.136;11.536;2022-08-01T03:22:53;3.95;;;1.83;;
7503;SDS011;3793;48.136;11.536;2022-08-01T03:25:21;3.45;;;1.85;;
7503;SDS011;3793;48.136;11.536;2022-08-01T03:27:51;2.55;;;2.00;;
7503;SDS011;3793;48.136;11.536;2022-08-01T03:30:20;3.35;;;2.00;;
7503;SDS011;3793;48.136;11.536;2022-08-01T03:32:47;2.38;;;2.13;;
7503;SDS011;3793;48.136;11.536;2022-08-01T03:35:14;3.03;;;1.90;;
7503;SDS011;3793;48.136;11.536;2022-08-01T03:37:42;3.53;;;2.08;;
7503;SDS011;3793;48.136;11.536;2022-08-01T03:40:11;3.58;;;2.10;;
7503;SDS011;3793;48.136;11.536;2022-08-01T03:42:41;3.35;;;2.20;;
7503;SDS011;3793;48.136;11.536;2022-08-01T03:45:14;3.45;;;2.10;;
7503;SDS011;3793;48.136;11.536;2022-08-01T03:47:42;3.67;;;2.20;;
7503;SDS011;3793;48.136;11.536;2022-08-01T03:50:10;2.83;;;2.53;;
7503;SDS011;3793;48.136;11.536;2022-08-01T03:52:38;3.75;;;2.00;;
7503;SDS011;3793;48.136;11.536;2022-08-01T03:55:06;3.10;;;2.05;;
7503;SDS011;3793;48.136;11.536;2022-08-01T03:57:33;3.47;;;2.22;;
7503;SDS011;3793;48.136;11.536;2022-08-01T04:00:00;3.88;;;2.20;;
7503;SDS011;3793;48.136;11.536;2022-08-01T04:02:29;3.45;;;2.08;;
7503;SDS011;3793;48.136;11.536;2022-08-01T04:04:55;2.58;;;1.88;;
7503;SDS011;3793;48.136;11.536;2022-08-01T04:07:22;3.08;;;1.90;;
7503;SDS011;3793;48.136;11.536;2022-08-01T04:09:49;2.90;;;1.77;;
7503;SDS011;3793;48.136;11.536;2022-08-01T04:12:16;2.80;;;2.10;;
7503;SDS011;3793;48.136;11.536;2022-08-01T04:14:43;2.83;;;1.95;;
7503;SDS011;3793;48.136;11.536;2022-08-01T04:17:09;2.80;;;2.15;;
7503;SDS011;3793;48.136;11.536;2022-08-01T04:19:37;2.30;;;2.10;;
7503;SDS011;3793;48.136;11.536;2022-08-01T04:22:04;2.63;;;2.05;;
7503;SDS011;3793;48.136;11.536;2022-08-01T04:24:32;4.00;;;2.08;;
7503;SDS011;3793;48.136;11.536;2022-08-01T04:27:00;3.30;;;2.05;;
7503;SDS011;3793;48.136;11.536;2022-08-01T04:29:27;3.60;;;2.33;;
7503;SDS011;3793;48.136;11.536;2022-08-01T04:31:56;2.70;;;2.50;;
7503;SDS011;3793;48.136;11.536;2022-08-01T04:34:23;2.63;;;2.10;;
7503;SDS011;3793;48.136;11.536;2022-08-01T04:36:54;2.50;;;2.03;;
7503;SDS011;3793;48.136;11.536;2022-08-01T04:39:21;2.38;;;2.03;;
7503;SDS011;3793;48.136;11.536;2022-08-01T04:41:52;2.78;;;2.30;;
7503;SDS011;3793;48.136;11.536;2022-08-01T04:44:21;2.17;;;1.98;;
7503;SDS011;3793;48.136;11.536;2022-08-01T04:46:48;2.35;;;1.90;;
7503;SDS011;3793;48.136;11.536;2022-08-01T04:49:15;2.53;;;2.28;;
7503;SDS011;3793;48.136;11.536;2022-08-01T04:51:50;3.45;;;1.88;;
7503;SDS011;3793;48.136;11.536;2022-08-01T04:54:23;2.55;;;2.10;;
7503;SDS011;3793;48.136;11.536;2022-08-01T04:56:50;3.08;;;2.28;;
7503;SDS011;3793;48.136;11.536;2022-08-01T04:59:18;2.92;;;2.05;;
7503;SDS011;3793;48.136;11.536;2022-08-01T05:02:06;3.00;;;2.30;;
7503;SDS011;3793;48.136;11.536;2022-08-01T05:04:32;3.05;;;2.38;;
7503;SDS011;3793;48.136;11.536;2022-08-01T05:06:59;2.17;;;2.00;;
7503;SDS011;3793;48.136;11.536;2022-08-01T05:09:27;5.75;;;2.40;;
7503;SDS011;3793;48.136;11.536;2022-08-01T05:11:55;4.97;;;1.92;;
7503;SDS011;3793;48.136;11.536;2022-08-01T05:14:23;3.33;;;2.17;;
7503;SDS011;3793;48.136;11.536;2022-08-01T05:16:50;2.60;;;2.08;;
7503;SDS011;3793;48.136;11.536;2022-08-01T05:19:16;2.97;;;2.20;;
7503;SDS011;3793;48.136;11.536;2022-08-01T05:21:43;3.75;;;2.20;;
7503;SDS011;3793;48.136;11.536;2022-08-01T05:24:10;3.25;;;2.20;;
7503;SDS011;3793;48.136;11.536;2022-08-01T05:26:39;3.05;;;2.10;;
7503;SDS011;3793;48.136;11.536;2022-08-01T05:29:05;4.43;;;2.30;;
7503;SDS011;3793;48.136;11.536;2022-08-01T05:31:32;2.92;;;2.33;;
7503;SDS011;3793;48.136;11.536;2022-08-01T05:33:59;2.75;;;2.10;;
7503;SDS011;3793;48.136;11.536;2022-08-01T05:36:26;2.67;;;1.83;;
7503;SDS011;3793;48.136;11.536;2022-08-01T05:38:53;5.22;;;2.50;;
7503;SDS011;3793;48.136;11.536;2022-08-01T05:41:19;3.67;;;2.25;;
7503;SDS011;3793;48.136;11.536;2022-08-01T05:43:48;5.55;;;2.30;;
7503;SDS011;3793;48.136;11.536;2022-08-01T05:46:14;2.53;;;2.33;;
7503;SDS011;3793;48.136;11.536;2022-08-01T05:48:41;2.30;;;2.10;;
7503;SDS011;3793;48.136;11.536;2022-08-01T05:51:08;2.63;;;2.17;;
7503;SDS011;3793;48.136;11.536;2022-08-01T05:53:34;4.00;;;2.55;;
7503;SDS011;3793;48.136;11.536;2022-08-01T05:56:01;6.00;;;2.55;;
7503;SDS011;3793;48.136;11.536;2022-08-01T05:58:27;4.25;;;2.30;;
7503;SDS011;3793;48.136;11.536;2022-08-01T06:00:56;4.80;;;2.40;;
7503;SDS011;3793;48.136;11.536;2022-08-01T06:03:22;3.67;;;2.05;;
7503;SDS011;3793;48.136;11.536;2022-08-01T06:05:49;6.45;;;2.30;;
7503;SDS011;3793;48.136;11.536;2022-08-01T06:08:15;3.47;;;2.65;;
7503;SDS011;3793;48.136;11.536;2022-08-01T06:10:42;3.63;;;2.15;;
7503;SDS011;3793;48.136;11.536;2022-08-01T06:13:08;3.20;;;2.53;;
7503;SDS011;3793;48.136;11.536;2022-08-01T06:15:35;4.38;;;2.13;;
7503;SDS011;3793;48.136;11.536;2022-08-01T06:18:04;4.82;;;2.70;;
7503;SDS011;3793;48.136;11.536;2022-08-01T06:20:31;5.38;;;2.60;;
7503;SDS011;3793;48.136;11.536;2022-08-01T06:22:58;4.03;;;2.50;;
7503;SDS011;3793;48.136;11.536;2022-08-01T06:25:24;2.47;;;2.28;;
7503;SDS011;3793;48.136;11.536;2022-08-01T06:27:51;8.00;;;2.72;;
7503;SDS011;3793;48.136;11.536;2022-08-01T06:30:18;2.38;;;2.13;;
7503;SDS011;3793;48.136;11.536;2022-08-01T06:32:45;3.83;;;2.50;;
7503;SDS011;3793;48.136;11.536;2022-08-01T06:35:14;3.17;;;2.28;;
7503;SDS011;3793;48.136;11.536;2022-08-01T06:37:40;4.38;;;2.40;;
7503;SDS011;3793;48.136;11.536;2022-08-01T06:40:08;3.78;;;2.58;;
7503;SDS011;3793;48.136;11.536;2022-08-01T06:42:35;3.78;;;2.78;;
7503;SDS011;3793;48.136;11.536;2022-08-01T06:45:02;4.32;;;2.60;;
7503;SDS011;3793;48.136;11.536;2022-08-01T06:47:29;3.78;;;2.10;;
7503;SDS011;3793;48.136;11.536;2022-08-01T06:49:55;2.70;;;2.13;;
7503;SDS011;3793;48.136;11.536;2022-08-01T06:52:24;6.18;;;2.50;;
7503;SDS011;3793;48.136;11.536;2022-08-01T06:54:50;4.78;;;2.70;;
7503;SDS011;3793;48.136;11.536;2022-08-01T06:57:17;4.40;;;2.80;;
7503;SDS011;3793;48.136;11.536;2022-08-01T06:59:44;2.90;;;2.35;;
7503;SDS011;3793;48.136;11.536;2022-08-01T07:02:10;3.38;;;2.60;;
7503;SDS011;3793;48.136;11.536;2022-08-01T07:04:37;4.63;;;2.78;;
7503;SDS011;3793;48.136;11.536;2022-08-01T07:07:04;4.28;;;2.60;;
7503;SDS011;3793;48.136;11.536;2022-08-01T07:09:32;2.80;;;2.60;;
7503;SDS011;3793;48.136;11.536;2022-08-01T07:11:58;3.28;;;2.50;;
7503;SDS011;3793;48.136;11.536;2022-08-01T07:14:25;3.42;;;2.53;;
7503;SDS011;3793;48.136;11.536;2022-08-01T07:16:52;2.80;;;2.10;;
7503;SDS011;3793;48.136;11.536;2022-08-01T07:19:18;2.42;;;2.22;;
7503;SDS011;3793;48.136;11.536;2022-08-01T07:21:45;4.88;;;2.60;;
7503;SDS011;3793;48.136;11.536;2022-08-01T07:24:13;3.15;;;2.50;;
7503;SDS011;3793;48.136;11.536;2022-08-01T07:26:41;3.22;;;2.95;;
7503;SDS011;3793;48.136;11.536;2022-08-01T07:29:08;2.97;;;2.50;;
7503;SDS011;3793;48.136;11.536;2022-08-01T07:31:35;3.33;;;2.08;;
7503;SDS011;3793;48.136;11.536;2022-08-01T07:34:02;4.40;;;2.70;;
7503;SDS011;3793;48.136;11.536;2022-08-01T07:36:28;2.72;;;2.50;;
7503;SDS011;3793;48.136;11.536;2022-08-01T07:38:55;4.68;;;2.83;;
7503;SDS011;3793;48.136;11.536;2022-08-01T07:41:22;3.72;;;2.85;;
7503;SDS011;3793;48.136;11.536;2022-08-01T07:43:50;3.72;;;2.88;;
7503;SDS011;3793;48.136;11.536;2022-08-01T07:46:16;3.72;;;2.67;;
7503;SDS011;3793;48.136;11.536;2022-08-01T07:48:43;4.97;;;2.72;;
7503;SDS011;3793;48.136;11.536;2022-08-01T07:51:09;5.78;;;3.00;;
7503;SDS011;3793;48.136;11.536;2022-08-01T07:53:37;4.20;;;2.40;;
7503;SDS011;3793;48.136;11.536;2022-08-01T07:56:04;3.60;;;2.67;;
7503;SDS011;3793;48.136;11.536;2022-08-01T07:58:31;5.03;;;2.58;;
7503;SDS011;3793;48.136;11.536;2022-08-01T08:00:59;4.70;;;2.13;;
7503;SDS011;3793;48.136;11.536;2022-08-01T08:03:25;2.50;;;2.28;;
7503;SDS011;3793;48.136;11.536;2022-08-01T08:05:52;2.70;;;2.45;;
7503;SDS011;3793;48.136;11.536;2022-08-01T08:08:19;7.45;;;2.72;;
7503;SDS011;3793;48.136;11.536;2022-08-01T08:10:45;2.90;;;2.60;;
7503;SDS011;3793;48.136;11.536;2022-08-01T08:13:12;2.80;;;2.33;;
7503;SDS011;3793;48.136;11.536;2022-08-01T08:15:40;6.45;;;2.55;;
7503;SDS011;3793;48.136;11.536;2022-08-01T08:18:08;3.05;;;2.47;;
7503;SDS011;3793;48.136;11.536;2022-08-01T08:20:34;3.55;;;2.60;;
7503;SDS011;3793;48.136;11.536;2022-08-01T08:23:01;3.30;;;2.78;;
7503;SDS011;3793;48.136;11.536;2022-08-01T08:25:47;2.63;;;2.42;;
7503;SDS011;3793;48.136;11.536;2022-08-01T08:28:14;5.07;;;2.80;;
7503;SDS011;3793;48.136;11.536;2022-08-01T08:30:41;7.25;;;2.65;;
7503;SDS011;3793;48.136;11.536;2022-08-01T08:33:09;3.65;;;2.40;;
7503;SDS011;3793;48.136;11.536;2022-08-01T08:35:35;2.92;;;2.42;;
7503;SDS011;3793;48.136;11.536;2022-08-01T08:38:02;2.60;;;2.28;;
7503;SDS011;3793;48.136;11.536;2022-08-01T08:40:29;5.00;;;2.78;;
7503;SDS011;3793;48.136;11.536;2022-08-01T08:42:56;4.68;;;2.50;;
7503;SDS011;3793;48.136;11.536;2022-08-01T08:45:22;4.03;;;3.00;;
7503;SDS011;3793;48.136;11.536;2022-08-01T08:47:49;3.33;;;2.65;;
7503;SDS011;3793;48.136;11.536;2022-08-01T08:50:18;3.83;;;2.55;;
7503;SDS011;3793;48.136;11.536;2022-08-01T08:52:44;3.95;;;2.67;;
7503;SDS011;3793;48.136;11.536;2022-08-01T08:55:13;3.95;;;2.78;;
7503;SDS011;3793;48.136;11.536;2022-08-01T08:57:42;3.65;;;2.55;;
7503;SDS011;3793;48.136;11.536;2022-08-01T09:00:10;4.60;;;2.75;;
7503;SDS011;3793;48.136;11.536;2022-08-01T09:02:39;3.05;;;2.45;;
7503;SDS011;3793;48.136;11.536;2022-08-01T09:05:06;2.97;;;2.55;;
7503;SDS011;3793;48.136;11.536;2022-08-01T09:07:35;4.85;;;2.20;;
7503;SDS011;3793;48.136;11.536;2022-08-01T09:10:02;3.95;;;2.25;;
7503;SDS011;3793;48.136;11.536;2022-08-01T09:12:29;3.30;;;2.50;;
7503;SDS011;3793;48.136;11.536;2022-08-01T09:14:55;2.55;;;2.35;;
7503;SDS011;3793;48.136;11.536;2022-08-01T09:17:22;5.18;;;2.30;;
7503;SDS011;3793;48.136;11.536;2022-08-01T09:19:49;2.10;;;1.90;;
7503;SDS011;3793;48.136;11.536;2022-08-01T09:22:17;4.07;;;2.13;;
7503;SDS011;3793;48.136;11.536;2022-08-01T09:25:00;2.28;;;2.05;;
7503;SDS011;3793;48.136;11.536;2022-08-01T09:27:27;2.28;;;2.08;;
7503;SDS011;3793;48.136;11.536;2022-08-01T09:29:55;3.70;;;2.38;;
7503;SDS011;3793;48.136;11.536;2022-08-01T09:32:33;3.22;;;2.15;;
7503;SDS011;3793;48.136;11.536;2022-08-01T09:35:01;2.75;;;2.20;;
7503;SDS011;3793;48.136;11.536;2022-08-01T09:37:48;4.28;;;1.80;;
7503;SDS011;3793;48.136;11.536;2022-08-01T09:40:16;2.83;;;2.03;;
7503;SDS011;3793;48.136;11.536;2022-08-01T09:42:42;4.20;;;2.13;;
7503;SDS011;3793;48.136;11.536;2022-08-01T09:47:55;3.78;;;2.30;;
7503;SDS011;3793;48.136;11.536;2022-08-01T09:50:21;5.57;;;1.80;;
7503;SDS011;3793;48.136;11.536;2022-08-01T09:52:53;2.63;;;1.73;;
7503;SDS011;3793;48.136;11.536;2022-08-01T09:55:22;5.25;;;2.10;;
7503;SDS011;3793;48.136;11.536;2022-08-01T09:57:54;3.60;;;1.60;;
7503;SDS011;3793;48.136;11.536;2022-08-01T10:00:21;2.17;;;1.60;;
7503;SDS011;3793;48.136;11.536;2022-08-01T10:02:47;2.28;;;2.08;;
7503;SDS011;3793;48.136;11.536;2022-08-01T10:05:14;2.20;;;2.00;;
7503;SDS011;3793;48.136;11.536;2022-08-01T10:07:54;2.15;;;1.95;;
7503;SDS011;3793;48.136;11.536;2022-08-01T10:10:22;1.65;;;1.55;;
7503;SDS011;3793;48.136;11.536;2022-08-01T10:12:49;1.70;;;1.60;;
7503;SDS011;3793;48.136;11.536;2022-08-01T10:15:17;3.65;;;1.88;;
7503;SDS011;3793;48.136;11.536;2022-08-01T10:17:46;2.58;;;1.70;;
7503;SDS011;3793;48.136;11.536;2022-08-01T10:20:16;3.90;;;1.90;;
7503;SDS011;3793;48.136;11.536;2022-08-01T10:22:42;2.58;;;1.75;;
7503;SDS011;3793;48.136;11.536;2022-08-01T10:25:10;2.70;;;1.92;;
7503;SDS011;3793;48.136;11.536;2022-08-01T10:27:39;2.63;;;1.63;;
7503;SDS011;3793;48.136;11.536;2022-08-01T10:30:10;2.17;;;1.60;;
7503;SDS011;3793;48.136;11.536;2022-08-01T10:32:37;2.85;;;1.75;;
7503;SDS011;3793;48.136;11.536;2022-08-01T10:35:05;2.00;;;1.88;;
7503;SDS011;3793;48.136;11.536;2022-08-01T10:37:32;4.38;;;1.90;;
7503;SDS011;3793;48.136;11.536;2022-08-01T10:39:59;2.35;;;1.88;;
7503;SDS011;3793;48.136;11.536;2022-08-01T10:42:26;2.05;;;1.50;;
7503;SDS011;3793;48.136;11.536;2022-08-01T10:44:55;3.08;;;2.00;;
7503;SDS011;3793;48.136;11.536;2022-08-01T10:47:23;2.85;;;1.70;;
7503;SDS011;3793;48.136;11.536;2022-08-01T10:49:54;2.13;;;1.90;;
7503;SDS011;3793;48.136;11.536;2022-08-01T10:52:22;3.80;;;1.77;;
7503;SDS011;3793;48.136;11.536;2022-08-01T10:54:49;3.60;;;1.90;;
7503;SDS011;3793;48.136;11.536;2022-08-01T10:57:35;1.70;;;1.60;;
7503;SDS011;3793;48.136;11.536;2022-08-01T11:00:09;2.22;;;1.65;;
7503;SDS011;3793;48.136;11.536;2022-08-01T11:02:36;3.42;;;2.13;;
7503;SDS011;3793;48.136;11.536;2022-08-01T11:05:07;3.10;;;1.90;;
7503;SDS011;3793;48.136;11.536;2022-08-01T11:07:38;2.45;;;2.10;;
7503;SDS011;3793;48.136;11.536;2022-08-01T11:10:09;2.75;;;1.63;;
7503;SDS011;3793;48.136;11.536;2022-08-01T11:12:40;3.67;;;1.92;;
7503;SDS011;3793;48.136;11.536;2022-08-01T11:15:19;3.20;;;1.80;;
7503;SDS011;3793;48.136;11.536;2022-08-01T11:17:52;2.20;;;1.90;;
7503;SDS011;3793;48.136;11.536;2022-08-01T11:20:20;2.08;;;1.60;;
7503;SDS011;3793;48.136;11.536;2022-08-01T11:28:17;1.55;;;1.45;;
7503;SDS011;3793;48.136;11.536;2022-08-01T11:30:46;3.13;;;1.90;;
7503;SDS011;3793;48.136;11.536;2022-08-01T11:33:13;1.85;;;1.20;;
7503;SDS011;3793;48.136;11.536;2022-08-01T11:36:16;2.75;;;1.77;;
7503;SDS011;3793;48.136;11.536;2022-08-01T11:38:38;2.75;;;1.60;;
7503;SDS011;3793;48.136;11.536;2022-08-01T11:41:10;4.63;;;1.50;;
7503;SDS011;3793;48.136;11.536;2022-08-01T11:43:43;2.88;;;1.85;;
7503;SDS011;3793;48.136;11.536;2022-08-01T11:46:25;1.50;;;1.40;;
7503;SDS011;3793;48.136;11.536;2022-08-01T11:49:24;2.50;;;1.77;;
7503;SDS011;3793;48.136;11.536;2022-08-01T11:51:56;3.53;;;1.40;;
7503;SDS011;3793;48.136;11.536;2022-08-01T11:54:24;2.65;;;1.67;;
7503;SDS011;3793;48.136;11.536;2022-08-01T11:56:53;1.92;;;1.70;;
7503;SDS011;3793;48.136;11.536;2022-08-01T11:59:19;2.28;;;1.63;;
7503;SDS011;3793;48.136;11.536;2022-08-01T12:01:48;1.48;;;1.38;;
7503;SDS011;3793;48.136;11.536;2022-08-01T12:04:15;1.85;;;1.20;;
7503;SDS011;3793;48.136;11.536;2022-08-01T12:06:41;1.42;;;1.33;;
7503;SDS011;3793;48.136;11.536;2022-08-01T12:09:14;2.30;;;1.30;;
7503;SDS011;3793;48.136;11.536;2022-08-01T12:11:41;2.03;;;1.08;;
7503;SDS011;3793;48.136;11.536;2022-08-01T12:14:07;3.45;;;1.05;;
7503;SDS011;3793;48.136;11.536;2022-08-01T12:16:34;1.60;;;1.50;;
7503;SDS011;3793;48.136;11.536;2022-08-01T12:19:02;1.85;;;1.33;;
7503;SDS011;3793;48.136;11.536;2022-08-01T12:21:30;3.60;;;1.60;;
7503;SDS011;3793;48.136;11.536;2022-08-01T12:24:00;2.92;;;1.50;;
7503;SDS011;3793;48.136;11.536;2022-08-01T12:26:38;2.08;;;1.50;;
7503;SDS011;3793;48.136;11.536;2022-08-01T12:29:04;1.50;;;0.90;;
7503;SDS011;3793;48.136;11.536;2022-08-01T12:31:31;2.25;;;1.30;;
7503;SDS011;3793;48.136;11.536;2022-08-01T12:33:58;1.98;;;1.10;;
7503;SDS011;3793;48.136;11.536;2022-08-01T12:36:46;1.77;;;1.38;;
7503;SDS011;3793;48.136;11.536;2022-08-01T12:39:13;1.85;;;1.35;;
7503;SDS011;3793;48.136;11.536;2022-08-01T12:41:42;1.80;;;1.40;;
7503;SDS011;3793;48.136;11.536;2022-08-01T12:44:12;2.13;;;1.40;;
7503;SDS011;3793;48.136;11.536;2022-08-01T12:46:39;2.72;;;1.42;;
7503;SDS011;3793;48.136;11.536;2022-08-01T12:49:06;3.28;;;1.92;;
7503;SDS011;3793;48.136;11.536;2022-08-01T12:51:33;2.78;;;1.52;;
7503;SDS011;3793;48.136;11.536;2022-08-01T12:54:01;2.47;;;1.50;;
7503;SDS011;3793;48.136;11.536;2022-08-01T12:56:32;2.70;;;1.33;;
7503;SDS011;3793;48.136;11.536;2022-08-01T12:58:59;3.13;;;1.50;;
7503;SDS011;3793;48.136;11.536;2022-08-01T13:01:27;3.92;;;1.30;;
7503;SDS011;3793;48.136;11.536;2022-08-01T13:03:57;3.20;;;1.48;;
7503;SDS011;3793;48.136;11.536;2022-08-01T13:06:27;1.58;;;1.48;;
7503;SDS011;3793;48.136;11.536;2022-08-01T13:08:55;2.97;;;1.13;;
7503;SDS011;3793;48.136;11.536;2022-08-01T13:11:32;2.08;;;1.45;;
7503;SDS011;3793;48.136;11.536;2022-08-01T13:13:58;1.60;;;1.00;;
7503;SDS011;3793;48.136;11.536;2022-08-01T13:16:25;1.83;;;1.20;;
7503;SDS011;3793;48.136;11.536;2022-08-01T13:18:52;2.08;;;1.50;;
7503;SDS011;3793;48.136;11.536;2022-08-01T13:21:20;1.98;;;1.50;;
7503;SDS011;3793;48.136;11.536;2022-08-01T13:26:40;1.35;;;1.10;;
7503;SDS011;3793;48.136;11.536;2022-08-01T13:29:07;2.55;;;1.42;;
7503;SDS011;3793;48.136;11.536;2022-08-01T13:31:34;4.10;;;1.52;;
7503;SDS011;3793;48.136;11.536;2022-08-01T13:34:01;2.80;;;1.50;;
7503;SDS011;3793;48.136;11.536;2022-08-01T13:36:28;4.43;;;1.50;;
7503;SDS011;3793;48.136;11.536;2022-08-01T13:38:56;2.13;;;1.42;;
7503;SDS011;3793;48.136;11.536;2022-08-01T13:41:42;2.35;;;1.50;;
7503;SDS011;3793;48.136;11.536;2022-08-01T13:44:09;2.63;;;1.55;;
7503;SDS011;3793;48.136;11.536;2022-08-01T13:46:36;2.35;;;1.70;;
7503;SDS011;3793;48.136;11.536;2022-08-01T13:49:03;4.55;;;1.67;;
7503;SDS011;3793;48.136;11.536;2022-08-01T13:51:30;2.00;;;1.38;;
7503;SDS011;3793;48.136;11.536;2022-08-01T13:53:56;1.77;;;1.10;;
7503;SDS011;3793;48.136;11.536;2022-08-01T13:56:23;1.38;;;1.27;;
7503;SDS011;3793;48.136;11.536;2022-08-01T13:58:51;1.60;;;1.10;;
7503;SDS011;3793;48.136;11.536;2022-08-01T14:01:18;1.77;;;1.13;;
7503;SDS011;3793;48.136;11.536;2022-08-01T14:03:45;1.95;;;1.05;;
7503;SDS011;3793;48.136;11.536;2022-08-01T14:06:12;1.73;;;1.33;;
7503;SDS011;3793;48.136;11.536;2022-08-01T14:08:41;1.98;;;1.42;;
7503;SDS011;3793;48.136;11.536;2022-08-01T14:11:07;1.50;;;1.33;;
7503;SDS011;3793;48.136;11.536;2022-08-01T14:13:34;5.90;;;1.30;;
7503;SDS011;3793;48.136;11.536;2022-08-01T14:16:05;2.40;;;1.23;;
7503;SDS011;3793;48.136;11.536;2022-08-01T14:18:31;1.83;;;1.60;;
7503;SDS011;3793;48.136;11.536;2022-08-01T14:20:58;4.55;;;1.95;;
7503;SDS011;3793;48.136;11.536;2022-08-01T14:23:25;1.85;;;1.48;;
7503;SDS011;3793;48.136;11.536;2022-08-01T14:25:51;1.48;;;1.38;;
7503;SDS011;3793;48.136;11.536;2022-08-01T14:28:18;1.55;;;1.40;;
7503;SDS011;3793;48.136;11.536;2022-08-01T14:30:44;3.03;;;2.22;;
7503;SDS011;3793;48.136;11.536;2022-08-01T14:33:13;2.40;;;2.08;;
7503;SDS011;3793;48.136;11.536;2022-08-01T14:35:40;2.58;;;1.88;;
7503;SDS011;3793;48.136;11.536;2022-08-01T14:38:07;1.50;;;1.40;;
7503;SDS011;3793;48.136;11.536;2022-08-01T14:40:34;3.53;;;1.88;;
7503;SDS011;3793;48.136;11.536;2022-08-01T14:43:00;1.98;;;1.70;;
7503;SDS011;3793;48.136;11.536;2022-08-01T14:45:27;2.22;;;2.03;;
7503;SDS011;3793;48.136;11.536;2022-08-01T14:47:54;4.13;;;1.90;;
7503;SDS011;3793;48.136;11.536;2022-08-01T14:50:22;2.72;;;1.90;;
7503;SDS011;3793;48.136;11.536;2022-08-01T14:52:51;3.88;;;1.88;;
7503;SDS011;3793;48.136;11.536;2022-08-01T14:55:18;2.90;;;1.58;;
7503;SDS011;3793;48.136;11.536;2022-08-01T14:57:48;2.95;;;1.73;;
7503;SDS011;3793;48.136;11.536;2022-08-01T15:00:15;2.95;;;2.00;;
7503;SDS011;3793;48.136;11.536;2022-08-01T15:02:42;2.65;;;1.80;;
7503;SDS011;3793;48.136;11.536;2022-08-01T15:05:09;2.85;;;1.80;;
7503;SDS011;3793;48.136;11.536;2022-08-01T15:07:37;4.53;;;1.90;;
7503;SDS011;3793;48.136;11.536;2022-08-01T15:10:04;4.68;;;1.75;;
7503;SDS011;3793;48.136;11.536;2022-08-01T15:12:30;7.10;;;2.20;;
7503;SDS011;3793;48.136;11.536;2022-08-01T15:14:58;2.53;;;2.28;;
7503;SDS011;3793;48.136;11.536;2022-08-01T15:17:25;3.33;;;1.92;;
7503;SDS011;3793;48.136;11.536;2022-08-01T15:19:54;6.07;;;1.85;;